Time;durP1;ratioP1;P1;durP2;ratioP2;P2;SDS_P1;SDS_P2;PMS_P1;PMS_P2;Temp;Humidity;BMP_temperature;BMP_pressure;BME280_temperature;BME280_humidity;BME280_pressure;Samples;Min_cycle;Max_cycle;Signal;HPM_P1;HPM_P2
2023/12/20 00:02:20;;;;;;;;;;;;;;;;;;5050304;28;19913;-64
2023/12/20 00:04:46;;;;;;;;;;;;;;;;;;5048439;28;19962;-64
2023/12/20 00:07:12;;;;;;;;;;;;;;;;;;5047766;28;19964;-64
2023/12/20 00:09:38;;;;;;;;;;;;;;;;;;5048176;28;20435;-64
2023/12/20 00:12:04;;;;;;;;;;;;;;;;;;5037059;28;19975;-64
2023/12/20 00:14:30;;;;;;;;;;;;;;;;;;5051586;28;19917;-64
2023/12/20 00:16:55;;;;;;;;;;;;;;;;;;5046134;28;21572;-64
2023/12/20 00:19:21;;;;;;;;;;;;;;;;;;5040718;28;19959;-64
2023/12/20 00:21:47;;;;;;;;;;;;;;;;;;5047396;28;19948;-64
2023/12/20 00:24:13;;;;;;;;;;;;;;;;;;5042087;28;20007;-64
2023/12/20 00:26:39;;;;;;;;;;;;;;;;;;5047954;28;20379;-64
2023/12/20 00:29:05;;;;;;;;;;;;;;;;;;5046406;28;19913;-64
2023/12/20 00:31:31;;;;;;;;;;;;;;;;;;5048822;28;19971;-65
2023/12/20 00:33:57;;;;;;;;;;;;;;;;;;5050729;28;19952;-65
2023/12/20 00:36:23;;;;;;;;;;;;;;;;;;5050195;28;20423;-65
2023/12/20 00:38:49;;;;;;;;;;;;;;;;;;5047925;28;20349;-65
2023/12/20 00:41:15;;;;;;;;;;;;;;;;;;5050118;28;19913;-65
2023/12/20 00:43:41;;;;;;;;;;;;;;;;;;5038427;28;19939;-65
2023/12/20 00:46:07;;;;;;;;;;;;;;;;;;5033957;28;20320;-65
2023/12/20 00:48:33;;;;;;;;;;;;;;;;;;5046895;28;19960;-64
2023/12/20 00:50:59;;;;;;;;;;;;;;;;;;5050817;28;20023;-65
2023/12/20 00:53:25;;;;;;;;;;;;;;;;;;5053346;28;19960;-65
2023/12/20 00:55:51;;;;;;;;;;;;;;;;;;5053588;28;19981;-65
2023/12/20 00:58:17;;;;;;;;;;;;;;;;;;5047116;28;20011;-65
2023/12/20 01:00:43;;;;;;;;;;;;;;;;;;5053608;28;20352;-65
2023/12/20 01:03:09;;;;;;;;;;;;;;;;;;5054263;28;20372;-64
2023/12/20 01:05:35;;;;;;;;;;;;;;;;;;5054492;28;19920;-65
2023/12/20 01:08:02;;;;;;;;;;;;;;;;;;5052275;28;20212;-65
2023/12/20 01:10:29;;;;;;;;;;;;;;;;;;5042866;28;19917;-65
2023/12/20 01:12:55;;;;;;;;;;;;;;;;;;5055829;28;19928;-65
2023/12/20 01:15:21;;;;;;;;;;;;;;;;;;5049532;28;20380;-64
2023/12/20 01:17:47;;;;;;;;;;;;;;;;;;5053065;28;19956;-64
2023/12/20 01:20:13;;;;;;;;;;;;;;;;;;5049540;28;19917;-64
2023/12/20 01:22:39;;;;;;;;;;;;;;;;;;5052716;28;19948;-65
2023/12/20 01:25:04;;;;;;;;;;;;;;;;;;5051434;28;19967;-64
2023/12/20 01:27:31;;;;;;;;;;;;;;;;;;5050521;28;19960;-65
2023/12/20 01:29:57;;;;;;;;;;;;;;;;;;5039604;28;19952;-64
2023/12/20 01:32:22;;;;;;;;;;;;;;;;;;5051223;28;19972;-64
2023/12/20 01:34:48;;;;;;;;;;;;;;;;;;5053540;28;19931;-65
2023/12/20 01:37:14;;;;;;;;;;;;;;;;;;5050139;28;20432;-64
2023/12/20 01:39:40;;;;;;;;;;;;;;;;;;5050459;28;19912;-64
2023/12/20 01:42:06;;;;;;;;;;;;;;;;;;5051131;28;19956;-64
2023/12/20 01:44:32;;;;;;;;;;;;;;;;;;5043954;28;20402;-64
2023/12/20 01:46:58;;;;;;;;;;;;;;;;;;5046610;28;19917;-64
2023/12/20 01:49:24;;;;;;;;;;;;;;;;;;5039572;28;20402;-65
2023/12/20 01:51:50;;;;;;;;;;;;;;;;;;5040541;28;19916;-64
2023/12/20 01:54:16;;;;;;;;;;;;;;;;;;5042391;28;19995;-64
2023/12/20 01:56:41;;;;;;;;;;;;;;;;;;5047131;28;20304;-65
2023/12/20 01:59:08;;;;;;;;;;;;;;;;;;5051735;28;19928;-65
2023/12/20 02:01:34;;;;;;;;;;;;;;;;;;5043480;28;19921;-60
2023/12/20 02:04:00;;;;;;;;;;;;;;;;;;5052779;28;19912;-59
2023/12/20 02:06:26;;;;;;;;;;;;;;;;;;5051925;28;19913;-59
2023/12/20 02:08:52;;;;;;;;;;;;;;;;;;5049197;28;20425;-60
2023/12/20 02:11:18;;;;;;;;;;;;;;;;;;5050214;28;20007;-59
2023/12/20 02:13:44;;;;;;;;;;;;;;;;;;5052173;28;19975;-59
2023/12/20 02:16:10;;;;;;;;;;;;;;;;;;5049211;28;20384;-59
2023/12/20 02:18:36;;;;;;;;;;;;;;;;;;5051668;28;20504;-59
2023/12/20 02:21:02;;;;;;;;;;;;;;;;;;5049672;28;19920;-60
2023/12/20 02:23:28;;;;;;;;;;;;;;;;;;5044445;28;20446;-60
2023/12/20 02:25:53;;;;;;;;;;;;;;;;;;5042040;28;19913;-61
2023/12/20 02:28:21;;;;;;;;;;;;;;;;;;5050394;28;19948;-60
2023/12/20 02:30:47;;;;;;;;;;;;;;;;;;5050534;28;19920;-60
2023/12/20 02:33:13;;;;;;;;;;;;;;;;;;5046486;28;20503;-60
2023/12/20 02:35:39;;;;;;;;;;;;;;;;;;5046860;28;19947;-59
2023/12/20 02:38:05;;;;;;;;;;;;;;;;;;5051183;28;19994;-61
2023/12/20 02:40:31;;;;;;;;;;;;;;;;;;5051059;28;19975;-61
2023/12/20 02:42:57;;;;;;;;;;;;;;;;;;5056635;28;19917;-60
2023/12/20 02:45:22;;;;;;;;;;;;;;;;;;5050284;28;19948;-60
2023/12/20 02:47:48;;;;;;;;;;;;;;;;;;5045125;28;19960;-61
2023/12/20 02:50:14;;;;;;;;;;;;;;;;;;5051704;28;19913;-60
2023/12/20 02:52:40;;;;;;;;;;;;;;;;;;5050781;28;19982;-61
2023/12/20 02:55:06;;;;;;;;;;;;;;;;;;5051726;28;19913;-60
2023/12/20 02:57:33;;;;;;;;;;;;;;;;;;5052138;28;20445;-62
2023/12/20 02:59:59;;;;;;;;;;;;;;;;;;5045414;28;19917;-60
2023/12/20 03:02:25;;;;;;;;;;;;;;;;;;5050989;28;20002;-61
2023/12/20 03:04:51;;;;;;;;;;;;;;;;;;5051300;28;19948;-59
2023/12/20 03:07:16;;;;;;;;;;;;;;;;;;5050145;28;19921;-61
2023/12/20 03:09:42;;;;;;;;;;;;;;;;;;5044703;28;19927;-58
2023/12/20 03:12:08;;;;;;;;;;;;;;;;;;5045286;28;19966;-61
2023/12/20 03:14:34;;;;;;;;;;;;;;;;;;5038456;28;20425;-65
2023/12/20 03:17:00;;;;;;;;;;;;;;;;;;5048798;28;19966;-60
2023/12/20 03:19:26;;;;;;;;;;;;;;;;;;5051507;28;19913;-60
2023/12/20 03:21:53;;;;;;;;;;;;;;;;;;5050829;28;19951;-60
2023/12/20 03:24:19;;;;;;;;;;;;;;;;;;5049906;28;19959;-61
2023/12/20 03:26:45;;;;;;;;;;;;;;;;;;5049633;28;20000;-60
2023/12/20 03:29:11;;;;;;;;;;;;;;;;;;5050979;28;20319;-61
2023/12/20 03:31:37;;;;;;;;;;;;;;;;;;5050057;28;19921;-60
2023/12/20 03:34:02;;;;;;;;;;;;;;;;;;5034948;28;19909;-60
2023/12/20 03:36:28;;;;;;;;;;;;;;;;;;5049722;28;20287;-60
2023/12/20 03:38:54;;;;;;;;;;;;;;;;;;5047511;28;19920;-60
2023/12/20 03:41:20;;;;;;;;;;;;;;;;;;5046294;28;19913;-61
2023/12/20 03:43:46;;;;;;;;;;;;;;;;;;5042818;28;19956;-61
2023/12/20 03:46:12;;;;;;;;;;;;;;;;;;5046262;28;20960;-59
2023/12/20 03:48:38;;;;;;;;;;;;;;;;;;5046063;28;20054;-60
2023/12/20 03:51:04;;;;;;;;;;;;;;;;;;5039151;28;19947;-62
2023/12/20 03:53:30;;;;;;;;;;;;;;;;;;5047481;28;19960;-62
2023/12/20 03:55:56;;;;;;;;;;;;;;;;;;5042416;28;20003;-60
2023/12/20 03:58:21;;;;;;;;;;;;;;;;;;5049827;28;19923;-60
2023/12/20 04:00:47;;;;;;;;;;;;;;;;;;5047956;28;19951;-60
2023/12/20 04:03:14;;;;;;;;;;;;;;;;;;5043965;28;19958;-61
2023/12/20 04:05:39;;;;;;;;;;;;;;;;;;5050676;28;20284;-61
2023/12/20 04:08:05;;;;;;;;;;;;;;;;;;5050558;28;19996;-61
2023/12/20 04:10:31;;;;;;;;;;;;;;;;;;5047313;28;20388;-60
2023/12/20 04:12:57;;;;;;;;;;;;;;;;;;5046670;28;19921;-61
2023/12/20 04:15:23;;;;;;;;;;;;;;;;;;5045492;28;19966;-61
2023/12/20 04:17:49;;;;;;;;;;;;;;;;;;5049350;28;19923;-62
2023/12/20 04:20:15;;;;;;;;;;;;;;;;;;5049813;28;19981;-65
2023/12/20 04:22:42;;;;;;;;;;;;;;;;;;5049409;28;19958;-66
2023/12/20 04:25:08;;;;;;;;;;;;;;;;;;5054837;28;20375;-65
2023/12/20 04:27:34;;;;;;;;;;;;;;;;;;5048132;28;19964;-65
2023/12/20 04:30:00;;;;;;;;;;;;;;;;;;5046530;28;19951;-65
2023/12/20 04:32:25;;;;;;;;;;;;;;;;;;5042951;28;19956;-65
2023/12/20 04:34:51;;;;;;;;;;;;;;;;;;5050369;28;19947;-66
2023/12/20 04:37:17;;;;;;;;;;;;;;;;;;5047380;28;20376;-65
2023/12/20 04:39:43;;;;;;;;;;;;;;;;;;5054514;28;19926;-65
2023/12/20 04:42:09;;;;;;;;;;;;;;;;;;5055351;28;20257;-65
2023/12/20 04:44:35;;;;;;;;;;;;;;;;;;5053265;28;19990;-65
2023/12/20 04:47:01;;;;;;;;;;;;;;;;;;5050205;28;19948;-65
2023/12/20 04:49:27;;;;;;;;;;;;;;;;;;5051905;28;20889;-65
2023/12/20 04:51:53;;;;;;;;;;;;;;;;;;5048752;28;19960;-66
2023/12/20 04:54:19;;;;;;;;;;;;;;;;;;5049162;28;20352;-65
2023/12/20 04:56:44;;;;;;;;;;;;;;;;;;5048921;28;19912;-65
2023/12/20 04:59:10;;;;;;;;;;;;;;;;;;5053250;28;20003;-65
2023/12/20 05:01:36;;;;;;;;;;;;;;;;;;5047574;28;19995;-65
2023/12/20 05:04:02;;;;;;;;;;;;;;;;;;5040798;28;20479;-65
2023/12/20 05:06:28;;;;;;;;;;;;;;;;;;5047923;28;19917;-66
2023/12/20 05:08:54;;;;;;;;;;;;;;;;;;5053777;28;19989;-65
2023/12/20 05:11:20;;;;;;;;;;;;;;;;;;5050989;28;20257;-66
2023/12/20 05:13:46;;;;;;;;;;;;;;;;;;5042209;28;20380;-66
2023/12/20 05:16:13;;;;;;;;;;;;;;;;;;5045126;28;19917;-65
2023/12/20 05:18:39;;;;;;;;;;;;;;;;;;5052281;28;19970;-66
2023/12/20 05:21:05;;;;;;;;;;;;;;;;;;5050860;28;19916;-65
2023/12/20 05:23:31;;;;;;;;;;;;;;;;;;5044348;28;20387;-66
2023/12/20 05:25:58;;;;;;;;;;;;;;;;;;5056932;28;19913;-65
2023/12/20 05:28:25;;;;;;;;;;;;;;;;;;5055423;28;19959;-66
2023/12/20 05:30:51;;;;;;;;;;;;;;;;;;5053953;28;19921;-66
2023/12/20 05:33:17;;;;;;;;;;;;;;;;;;5045162;28;20373;-65
2023/12/20 05:35:43;;;;;;;;;;;;;;;;;;5044763;28;19917;-66
2023/12/20 05:38:09;;;;;;;;;;;;;;;;;;5043962;28;19923;-65
2023/12/20 05:40:35;;;;;;;;;;;;;;;;;;5050678;28;19960;-66
2023/12/20 05:43:02;;;;;;;;;;;;;;;;;;5056574;28;20015;-66
2023/12/20 05:45:28;;;;;;;;;;;;;;;;;;5048184;28;19921;-66
2023/12/20 05:47:53;;;;;;;;;;;;;;;;;;5055977;28;19916;-66
2023/12/20 05:50:19;;;;;;;;;;;;;;;;;;5042256;28;19992;-66
2023/12/20 05:52:46;;;;;;;;;;;;;;;;;;5043995;28;19917;-66
2023/12/20 05:55:13;;;;;;;;;;;;;;;;;;5046697;28;20008;-66
2023/12/20 05:57:38;;;;;;;;;;;;;;;;;;5055522;28;19920;-65
2023/12/20 06:00:04;;;;;;;;;;;;;;;;;;5052166;28;19960;-65
2023/12/20 06:02:30;;;;;;;;;;;;;;;;;;5046257;28;19948;-67
2023/12/20 06:04:57;;;;;;;;;;;;;;;;;;5046768;28;19952;-66
2023/12/20 06:07:23;;;;;;;;;;;;;;;;;;5057879;28;19986;-66
2023/12/20 06:09:49;;;;;;;;;;;;;;;;;;5045521;28;20625;-66
2023/12/20 06:12:15;;;;;;;;;;;;;;;;;;5043945;28;19959;-65
2023/12/20 06:14:41;;;;;;;;;;;;;;;;;;5049452;28;20391;-66
2023/12/20 06:17:07;;;;;;;;;;;;;;;;;;5041684;28;19913;-66
2023/12/20 06:19:33;;;;;;;;;;;;;;;;;;5051428;28;20123;-66
2023/12/20 06:21:59;;;;;;;;;;;;;;;;;;5047348;28;19956;-66
2023/12/20 06:24:27;;;;;;;;;;;;;;;;;;5048958;28;19955;-66
2023/12/20 06:26:54;;;;;;;;;;;;;;;;;;5045595;28;19913;-66
2023/12/20 06:29:20;;;;;;;;;;;;;;;;;;5047799;28;19917;-65
2023/12/20 06:31:46;;;;;;;;;;;;;;;;;;5049660;28;20333;-65
2023/12/20 06:34:12;;;;;;;;;;;;;;;;;;5056206;28;20578;-66
2023/12/20 06:36:38;;;;;;;;;;;;;;;;;;5051841;28;19913;-66
2023/12/20 06:39:04;;;;;;;;;;;;;;;;;;5052897;28;20004;-60
2023/12/20 06:41:30;;;;;;;;;;;;;;;;;;5048633;28;20280;-62
2023/12/20 06:43:56;;;;;;;;;;;;;;;;;;5051722;28;19964;-62
2023/12/20 06:46:22;;;;;;;;;;;;;;;;;;5042568;28;19963;-60
2023/12/20 06:48:48;;;;;;;;;;;;;;;;;;5043166;28;19955;-60
2023/12/20 06:51:14;;;;;;;;;;;;;;;;;;5047531;28;20007;-60
2023/12/20 06:53:40;;;;;;;;;;;;;;;;;;5042876;28;20011;-60
2023/12/20 06:56:07;;;;;;;;;;;;;;;;;;5046879;28;20004;-63
2023/12/20 06:58:33;;;;;;;;;;;;;;;;;;5042199;28;19913;-61
2023/12/20 07:00:59;;;;;;;;;;;;;;;;;;5047964;28;19912;-60
2023/12/20 07:03:24;;;;;;;;;;;;;;;;;;5041931;28;19943;-61
2023/12/20 07:05:50;;;;;;;;;;;;;;;;;;5051079;28;20432;-60
2023/12/20 07:08:16;;;;;;;;;;;;;;;;;;5033423;28;19917;-60
2023/12/20 07:10:42;;;;;;;;;;;;;;;;;;5042180;28;20956;-60
2023/12/20 07:13:08;;;;;;;;;;;;;;;;;;5058423;28;19928;-60
2023/12/20 07:15:35;;;;;;;;;;;;;;;;;;5046722;28;20375;-60
2023/12/20 07:18:01;;;;;;;;;;;;;;;;;;5039163;28;19909;-61
2023/12/20 07:20:27;;;;;;;;;;;;;;;;;;5048948;28;20000;-60
2023/12/20 07:22:53;;;;;;;;;;;;;;;;;;5048089;28;19913;-60
2023/12/20 07:25:20;;;;;;;;;;;;;;;;;;5047902;28;19982;-60
2023/12/20 07:27:45;;;;;;;;;;;;;;;;;;5040819;28;19935;-60
2023/12/20 07:30:11;;;;;;;;;;;;;;;;;;5050136;28;20007;-60
2023/12/20 07:32:39;;;;;;;;;;;;;;;;;;5041771;28;22575;-60
2023/12/20 07:35:05;;;;;;;;;;;;;;;;;;5041633;28;19948;-61
2023/12/20 07:37:31;;;;;;;;;;;;;;;;;;5031613;28;19917;-60
2023/12/20 07:39:57;;;;;;;;;;;;;;;;;;5043402;28;19972;-60
2023/12/20 07:42:23;;;;;;;;;;;;;;;;;;5049495;28;20264;-61
2023/12/20 07:44:49;;;;;;;;;;;;;;;;;;5048544;28;19968;-60
2023/12/20 07:47:18;;;;;;;;;;;;;;;;;;5046170;28;20006;-60
2023/12/20 07:49:44;;;;;;;;;;;;;;;;;;5043791;28;19920;-66
2023/12/20 07:52:09;;;;;;;;;;;;;;;;;;5037917;28;20385;-66
2023/12/20 07:54:35;;;;;;;;;;;;;;;;;;5038309;28;20015;-65
2023/12/20 07:57:01;;;;;;;;;;;;;;;;;;5046244;28;20075;-66
2023/12/20 07:59:27;;;;;;;;;;;;;;;;;;5043234;28;19999;-66
2023/12/20 08:01:53;;;;;;;;;;;;;;;;;;5039111;28;20049;-66
2023/12/20 08:04:19;;;;;;;;;;;;;;;;;;5050259;28;19920;-65
2023/12/20 08:06:45;;;;;;;;;;;;;;;;;;5048264;28;19999;-66
2023/12/20 08:09:11;;;;;;;;;;;;;;;;;;5054608;28;19947;-65
2023/12/20 08:11:37;;;;;;;;;;;;;;;;;;5043769;28;19946;-65
2023/12/20 08:14:03;;;;;;;;;;;;;;;;;;5054592;28;19931;-64
2023/12/20 08:16:29;;;;;;;;;;;;;;;;;;5052271;28;19952;-65
2023/12/20 08:18:55;;;;;;;;;;;;;;;;;;5046007;28;19935;-65
2023/12/20 08:21:22;;;;;;;;;;;;;;;;;;5045234;28;19913;-65
2023/12/20 08:23:49;;;;;;;;;;;;;;;;;;5052334;28;20000;-65
2023/12/20 08:26:15;;;;;;;;;;;;;;;;;;5054060;28;19912;-65
2023/12/20 08:28:41;;;;;;;;;;;;;;;;;;5059811;28;19963;-65
2023/12/20 08:31:06;;;;;;;;;;;;;;;;;;5054260;28;19991;-65
2023/12/20 08:33:32;;;;;;;;;;;;;;;;;;5051602;28;19920;-65
2023/12/20 08:35:58;;;;;;;;;;;;;;;;;;5054298;28;19924;-65
2023/12/20 08:38:24;;;;;;;;;;;;;;;;;;5050265;28;19959;-65
2023/12/20 08:40:50;;;;;;;;;;;;;;;;;;5052316;28;19908;-65
2023/12/20 08:43:16;;;;;;;;;;;;;;;;;;5039284;28;19948;-65
2023/12/20 08:45:42;;;;;;;;;;;;;;;;;;5053296;28;20056;-65
2023/12/20 08:48:08;;;;;;;;;;;;;;;;;;5048188;28;20048;-65
2023/12/20 08:50:34;;;;;;;;;;;;;;;;;;5049438;28;19921;-65
2023/12/20 08:53:00;;;;;;;;;;;;;;;;;;5045577;28;20003;-65
2023/12/20 08:55:28;;;;;;;;;;;;;;;;;;5052022;28;20340;-65
2023/12/20 08:57:54;;;;;;;;;;;;;;;;;;5040798;28;19916;-65
2023/12/20 09:00:20;;;;;;;;;;;;;;;;;;5041059;28;19909;-65
2023/12/20 09:02:46;;;;;;;;;;;;;;;;;;5044375;28;20047;-65
2023/12/20 09:05:12;;;;;;;;;;;;;;;;;;5048159;28;19959;-64
2023/12/20 09:07:38;;;;;;;;;;;;;;;;;;5051149;28;20371;-65
2023/12/20 09:10:04;;;;;;;;;;;;;;;;;;5040525;28;19967;-65
2023/12/20 09:12:30;;;;;;;;;;;;;;;;;;5066749;28;20368;-65
2023/12/20 09:14:56;;;;;;;;;;;;;;;;;;5043724;28;19966;-65
2023/12/20 09:17:22;;;;;;;;;;;;;;;;;;5047339;28;19944;-65
2023/12/20 09:19:48;;;;;;;;;;;;;;;;;;5044480;28;20250;-65
2023/12/20 09:22:14;;;;;;;;;;;;;;;;;;5050440;28;19919;-65
2023/12/20 09:24:40;;;;;;;;;;;;;;;;;;5052467;28;19975;-65
2023/12/20 09:27:06;;;;;;;;;;;;;;;;;;5050744;28;19909;-65
2023/12/20 09:29:32;;;;;;;;;;;;;;;;;;5049240;28;19983;-65
2023/12/20 09:31:58;;;;;;;;;;;;;;;;;;5047245;28;19956;-65
2023/12/20 09:34:25;;;;;;;;;;;;;;;;;;5051449;28;20058;-65
2023/12/20 09:36:51;;;;;;;;;;;;;;;;;;5046168;28;19913;-65
2023/12/20 09:39:23;;;;;;;;;;;;;;;;;;5039413;28;19917;-65
2023/12/20 09:41:49;;;;;;;;;;;;;;;;;;5048894;28;19967;-65
2023/12/20 09:44:15;;;;;;;;;;;;;;;;;;5042686;28;19955;-65
2023/12/20 09:46:41;;;;;;;;;;;;;;;;;;5047180;28;19939;-65
2023/12/20 09:49:07;;;;;;;;;;;;;;;;;;5034230;28;20372;-65
2023/12/20 09:51:33;;;;;;;;;;;;;;;;;;5040944;28;19970;-65
2023/12/20 09:53:59;;;;;;;;;;;;;;;;;;5038804;28;20253;-65
2023/12/20 09:56:24;;;;;;;;;;;;;;;;;;5052447;28;19908;-65
2023/12/20 09:58:50;;;;;;;;;;;;;;;;;;5045840;28;20033;-65
2023/12/20 10:01:16;;;;;;;;;;;;;;;;;;5047958;28;20357;-65
2023/12/20 10:03:42;;;;;;;;;;;;;;;;;;5045759;28;19923;-65
2023/12/20 10:06:08;;;;;;;;;;;;;;;;;;5046608;28;19913;-65
2023/12/20 10:08:34;;;;;;;;;;;;;;;;;;5049351;28;20010;-65
2023/12/20 10:11:02;;;;;;;;;;;;;;;;;;5051002;28;20024;-60
2023/12/20 10:13:28;;;;;;;;;;;;;;;;;;5046614;28;19928;-60
2023/12/20 10:15:54;;;;;;;;;;;;;;;;;;5051117;28;19931;-61
2023/12/20 10:18:20;;;;;;;;;;;;;;;;;;5050626;28;19913;-61
2023/12/20 10:20:46;;;;;;;;;;;;;;;;;;5040140;28;20004;-60
2023/12/20 10:23:13;;;;;;;;;;;;;;;;;;5047011;28;20008;-61
2023/12/20 10:25:39;;;;;;;;;;;;;;;;;;5050538;28;19919;-60
2023/12/20 10:28:05;;;;;;;;;;;;;;;;;;5043419;28;19909;-60
2023/12/20 10:30:31;;;;;;;;;;;;;;;;;;5045761;28;19943;-60
2023/12/20 10:32:57;;;;;;;;;;;;;;;;;;5041271;28;19967;-61
2023/12/20 10:35:23;;;;;;;;;;;;;;;;;;5041219;28;19913;-60
2023/12/20 10:37:49;;;;;;;;;;;;;;;;;;5043019;28;19952;-61
2023/12/20 10:40:14;;;;;;;;;;;;;;;;;;5034100;28;20304;-61
2023/12/20 10:42:40;;;;;;;;;;;;;;;;;;5044552;28;19909;-61
2023/12/20 10:45:06;;;;;;;;;;;;;;;;;;5037920;28;19913;-60
2023/12/20 10:47:32;;;;;;;;;;;;;;;;;;5049286;28;19965;-60
2023/12/20 10:49:58;;;;;;;;;;;;;;;;;;5048212;28;19948;-60
2023/12/20 10:52:25;;;;;;;;;;;;;;;;;;5049903;28;20469;-62
2023/12/20 10:54:51;;;;;;;;;;;;;;;;;;5046367;28;20369;-62
2023/12/20 10:57:17;;;;;;;;;;;;;;;;;;5049761;28;19912;-61
2023/12/20 10:59:42;;;;;;;;;;;;;;;;;;5038535;28;19957;-60
2023/12/20 11:02:10;;;;;;;;;;;;;;;;;;5044557;28;20258;-60
2023/12/20 11:04:36;;;;;;;;;;;;;;;;;;5046558;28;19916;-60
2023/12/20 11:07:02;;;;;;;;;;;;;;;;;;5043942;28;19945;-59
2023/12/20 11:09:28;;;;;;;;;;;;;;;;;;5036065;28;19959;-61
2023/12/20 11:11:54;;;;;;;;;;;;;;;;;;5057759;28;19999;-60
2023/12/20 11:14:20;;;;;;;;;;;;;;;;;;5035199;28;20353;-60
2023/12/20 11:16:46;;;;;;;;;;;;;;;;;;5032272;28;20003;-61
2023/12/20 11:19:13;;;;;;;;;;;;;;;;;;5043872;28;20000;-64
2023/12/20 11:21:39;;;;;;;;;;;;;;;;;;5043912;28;19916;-64
2023/12/20 11:24:05;;;;;;;;;;;;;;;;;;5047674;28;19916;-64
2023/12/20 11:26:31;;;;;;;;;;;;;;;;;;5050923;28;20341;-64
2023/12/20 11:28:57;;;;;;;;;;;;;;;;;;5047526;28;19913;-64
2023/12/20 11:31:23;;;;;;;;;;;;;;;;;;5047106;28;19913;-64
2023/12/20 11:33:51;;;;;;;;;;;;;;;;;;5038140;28;20091;-64
2023/12/20 11:36:17;;;;;;;;;;;;;;;;;;5048142;28;19913;-64
2023/12/20 11:38:43;;;;;;;;;;;;;;;;;;5042657;28;20307;-64
2023/12/20 11:41:08;;;;;;;;;;;;;;;;;;5037594;28;19939;-64
2023/12/20 11:43:34;;;;;;;;;;;;;;;;;;5037426;28;19995;-64
2023/12/20 11:46:00;;;;;;;;;;;;;;;;;;5043671;28;19913;-64
2023/12/20 11:48:26;;;;;;;;;;;;;;;;;;5039991;28;19944;-64
2023/12/20 11:50:52;;;;;;;;;;;;;;;;;;5043847;28;20320;-64
2023/12/20 11:53:20;;;;;;;;;;;;;;;;;;5043918;28;19923;-64
2023/12/20 11:55:46;;;;;;;;;;;;;;;;;;5039337;28;19912;-64
2023/12/20 11:58:12;;;;;;;;;;;;;;;;;;5037920;28;20016;-64
2023/12/20 12:00:38;;;;;;;;;;;;;;;;;;5042018;28;19917;-64
2023/12/20 12:03:04;;;;;;;;;;;;;;;;;;5037637;28;19933;-64
2023/12/20 12:05:30;;;;;;;;;;;;;;;;;;5049698;28;20003;-64
2023/12/20 12:07:56;;;;;;;;;;;;;;;;;;5046442;28;20008;-64
2023/12/20 12:10:22;;;;;;;;;;;;;;;;;;5049746;28;19928;-64
2023/12/20 12:12:48;;;;;;;;;;;;;;;;;;5047535;28;19964;-64
2023/12/20 12:15:14;;;;;;;;;;;;;;;;;;5043046;28;20084;-64
2023/12/20 12:17:40;;;;;;;;;;;;;;;;;;5044938;28;19917;-64
2023/12/20 12:20:06;;;;;;;;;;;;;;;;;;5039153;28;20288;-63
2023/12/20 12:22:32;;;;;;;;;;;;;;;;;;5041779;28;19913;-63
2023/12/20 12:24:58;;;;;;;;;;;;;;;;;;5050645;28;20005;-63
2023/12/20 12:27:24;;;;;;;;;;;;;;;;;;5048437;28;20376;-63
2023/12/20 12:29:50;;;;;;;;;;;;;;;;;;5037183;28;20023;-64
2023/12/20 12:32:16;;;;;;;;;;;;;;;;;;5046768;28;19959;-64
2023/12/20 12:34:42;;;;;;;;;;;;;;;;;;5033289;28;20363;-64
2023/12/20 12:37:08;;;;;;;;;;;;;;;;;;5044705;28;19920;-64
2023/12/20 12:39:34;;;;;;;;;;;;;;;;;;5041172;28;19916;-64
2023/12/20 12:41:59;;;;;;;;;;;;;;;;;;5047204;28;20345;-64
2023/12/20 12:44:26;;;;;;;;;;;;;;;;;;5050492;28;19917;-64
2023/12/20 12:46:53;;;;;;;;;;;;;;;;;;5050130;28;19913;-64
2023/12/20 12:49:19;;;;;;;;;;;;;;;;;;5046101;28;19920;-64
2023/12/20 12:51:45;;;;;;;;;;;;;;;;;;5041155;28;19945;-64
2023/12/20 12:54:12;;;;;;;;;;;;;;;;;;5052981;28;19915;-63
2023/12/20 12:56:38;;;;;;;;;;;;;;;;;;5049846;28;19951;-63
2023/12/20 12:59:05;;;;;;;;;;;;;;;;;;5041596;28;20335;-63
2023/12/20 13:01:31;;;;;;;;;;;;;;;;;;5040889;28;19924;-63
2023/12/20 13:03:57;;;;;;;;;;;;;;;;;;5047217;28;19914;-63
2023/12/20 13:06:23;;;;;;;;;;;;;;;;;;5049795;28;20432;-63
2023/12/20 13:08:49;;;;;;;;;;;;;;;;;;5051570;28;19920;-63
2023/12/20 13:11:15;;;;;;;;;;;;;;;;;;5053789;28;20343;-64
2023/12/20 13:13:41;;;;;;;;;;;;;;;;;;5055144;28;20375;-63
2023/12/20 13:16:06;;;;;;;;;;;;;;;;;;5042129;28;19913;-63
2023/12/20 13:18:32;;;;;;;;;;;;;;;;;;5048431;28;19956;-63
2023/12/20 13:20:58;;;;;;;;;;;;;;;;;;5041022;28;19949;-63
2023/12/20 13:23:24;;;;;;;;;;;;;;;;;;5045598;28;20371;-63
2023/12/20 13:25:50;;;;;;;;;;;;;;;;;;5043106;28;19920;-63
2023/12/20 13:28:16;;;;;;;;;;;;;;;;;;5048124;28;19917;-64
2023/12/20 13:30:42;;;;;;;;;;;;;;;;;;5052562;28;19955;-64
2023/12/20 13:33:08;;;;;;;;;;;;;;;;;;5050066;28;19952;-64
2023/12/20 13:35:34;;;;;;;;;;;;;;;;;;5040288;28;20008;-64
2023/12/20 13:38:00;;;;;;;;;;;;;;;;;;5038440;28;20043;-63
2023/12/20 13:40:26;;;;;;;;;;;;;;;;;;5047451;28;21644;-65
2023/12/20 13:42:52;;;;;;;;;;;;;;;;;;5045231;28;19913;-64
2023/12/20 13:45:18;;;;;;;;;;;;;;;;;;5046996;28;19948;-65
2023/12/20 13:47:44;;;;;;;;;;;;;;;;;;5049492;28;20326;-65
2023/12/20 13:50:09;;;;;;;;;;;;;;;;;;5041404;28;19925;-66
2023/12/20 13:52:35;;;;;;;;;;;;;;;;;;5049743;28;19917;-66
2023/12/20 13:55:01;;;;;;;;;;;;;;;;;;5035591;28;19955;-64
2023/12/20 13:57:29;;;;;;;;;;;;;;;;;;5048161;28;20326;-66
2023/12/20 13:59:57;;;;;;;;;;;;;;;;;;5052293;28;19912;-65
2023/12/20 14:02:23;;;;;;;;;;;;;;;;;;5044340;28;19996;-65
2023/12/20 14:04:49;;;;;;;;;;;;;;;;;;5042801;28;20008;-65
2023/12/20 14:07:15;;;;;;;;;;;;;;;;;;5041805;28;20385;-65
2023/12/20 14:09:45;;;;;;;;;;;;;;;;;;5046014;28;19923;-65
2023/12/20 14:12:11;;;;;;;;;;;;;;;;;;5047196;28;19925;-65
2023/12/20 14:14:37;;;;;;;;;;;;;;;;;;5043588;28;19951;-65
2023/12/20 14:17:03;;;;;;;;;;;;;;;;;;5048106;28;20434;-64
2023/12/20 14:19:29;;;;;;;;;;;;;;;;;;5037121;28;20059;-63
2023/12/20 14:21:55;;;;;;;;;;;;;;;;;;5050610;28;19996;-65
2023/12/20 14:24:21;;;;;;;;;;;;;;;;;;5047342;28;20342;-63
2023/12/20 14:26:47;;;;;;;;;;;;;;;;;;5044055;28;20300;-64
2023/12/20 14:29:13;;;;;;;;;;;;;;;;;;5037006;28;19939;-63
2023/12/20 14:31:40;;;;;;;;;;;;;;;;;;5041515;28;20007;-64
2023/12/20 14:34:06;;;;;;;;;;;;;;;;;;5050342;28;20260;-65
2023/12/20 14:36:32;;;;;;;;;;;;;;;;;;5048462;28;19970;-64
2023/12/20 14:38:59;;;;;;;;;;;;;;;;;;5046157;28;20325;-64
2023/12/20 14:41:25;;;;;;;;;;;;;;;;;;5048855;28;19948;-63
2023/12/20 14:43:51;;;;;;;;;;;;;;;;;;5043276;28;19971;-64
2023/12/20 14:46:18;;;;;;;;;;;;;;;;;;5041082;28;20369;-64
2023/12/20 14:48:44;;;;;;;;;;;;;;;;;;5048581;28;19916;-59
2023/12/20 14:51:11;;;;;;;;;;;;;;;;;;5040872;28;19952;-60
2023/12/20 14:53:37;;;;;;;;;;;;;;;;;;5046258;28;19952;-59
2023/12/20 14:56:03;;;;;;;;;;;;;;;;;;5047461;28;19971;-60
2023/12/20 14:58:29;;;;;;;;;;;;;;;;;;5049353;28;19916;-59
2023/12/20 15:00:56;;;;;;;;;;;;;;;;;;5048888;28;19913;-59
2023/12/20 15:03:21;;;;;;;;;;;;;;;;;;5053038;28;20349;-60
2023/12/20 15:05:47;;;;;;;;;;;;;;;;;;5054049;28;19956;-60
2023/12/20 15:08:13;;;;;;;;;;;;;;;;;;5044980;28;19917;-60
2023/12/20 15:10:39;;;;;;;;;;;;;;;;;;5050558;28;19981;-61
2023/12/20 15:13:06;;;;;;;;;;;;;;;;;;5051928;28;20100;-60
2023/12/20 15:15:33;;;;;;;;;;;;;;;;;;5042982;28;19917;-61
2023/12/20 15:17:59;;;;;;;;;;;;;;;;;;5049663;28;19913;-59
2023/12/20 15:20:25;;;;;;;;;;;;;;;;;;5040181;28;19955;-59
2023/12/20 15:22:51;;;;;;;;;;;;;;;;;;5049696;28;20265;-60
2023/12/20 15:25:21;;;;;;;;;;;;;;;;;;5052653;28;19916;-60
2023/12/20 15:27:49;;;;;;;;;;;;;;;;;;5042824;28;19913;-61
2023/12/20 15:30:14;;;;;;;;;;;;;;;;;;5048322;28;19921;-59
2023/12/20 15:32:40;;;;;;;;;;;;;;;;;;5047804;28;20001;-61
2023/12/20 15:35:06;;;;;;;;;;;;;;;;;;5044208;28;20363;-60
2023/12/20 15:37:32;;;;;;;;;;;;;;;;;;5042478;28;19914;-60
2023/12/20 15:39:59;;;;;;;;;;;;;;;;;;5050739;28;19919;-60
2023/12/20 15:42:25;;;;;;;;;;;;;;;;;;5044349;28;19913;-60
2023/12/20 15:44:50;;;;;;;;;;;;;;;;;;5043341;28;19968;-60
2023/12/20 15:47:16;;;;;;;;;;;;;;;;;;5049525;28;20443;-59
2023/12/20 15:49:42;;;;;;;;;;;;;;;;;;5048858;28;19965;-60
2023/12/20 15:52:08;;;;;;;;;;;;;;;;;;5057671;28;20394;-62
2023/12/20 15:54:37;;;;;;;;;;;;;;;;;;5056043;28;20070;-59
2023/12/20 15:57:03;;;;;;;;;;;;;;;;;;5041925;28;19924;-60
2023/12/20 15:59:29;;;;;;;;;;;;;;;;;;5044571;28;19929;-65
2023/12/20 16:01:55;;;;;;;;;;;;;;;;;;5051259;28;19999;-64
2023/12/20 16:04:21;;;;;;;;;;;;;;;;;;5065966;28;19920;-64
2023/12/20 16:06:47;;;;;;;;;;;;;;;;;;5053127;28;20323;-64
2023/12/20 16:09:13;;;;;;;;;;;;;;;;;;5058184;28;19921;-64
2023/12/20 16:11:40;;;;;;;;;;;;;;;;;;5053388;28;19963;-64
2023/12/20 16:14:06;;;;;;;;;;;;;;;;;;5051786;28;19940;-64
2023/12/20 16:16:32;;;;;;;;;;;;;;;;;;5043252;28;19955;-64
2023/12/20 16:18:58;;;;;;;;;;;;;;;;;;5042764;28;20002;-65
2023/12/20 16:21:24;;;;;;;;;;;;;;;;;;5045366;28;19912;-64
2023/12/20 16:23:50;;;;;;;;;;;;;;;;;;5045061;28;19923;-64
2023/12/20 16:26:15;;;;;;;;;;;;;;;;;;5040836;28;19967;-64
2023/12/20 16:28:41;;;;;;;;;;;;;;;;;;5048205;28;20257;-64
2023/12/20 16:31:07;;;;;;;;;;;;;;;;;;5046485;28;19913;-64
2023/12/20 16:33:33;;;;;;;;;;;;;;;;;;5043231;28;19927;-65
2023/12/20 16:35:59;;;;;;;;;;;;;;;;;;5053498;28;19952;-65
2023/12/20 16:38:25;;;;;;;;;;;;;;;;;;5055478;28;19944;-64